sensor_id;sensor_type;location;lat;lon;timestamp;P1;durP1;ratioP1;P2;durP2;ratioP2
74894;SDS011;63447;49.446;8.666;2023-02-18T00:00:20;6.90;;;3.90;;
74894;SDS011;63447;49.446;8.666;2023-02-18T00:02:48;6.97;;;3.58;;
74894;SDS011;63447;49.446;8.666;2023-02-18T00:05:14;7.47;;;3.65;;
74894;SDS011;63447;49.446;8.666;2023-02-18T00:07:42;7.50;;;4.13;;
74894;SDS011;63447;49.446;8.666;2023-02-18T00:10:11;6.93;;;3.53;;
74894;SDS011;63447;49.446;8.666;2023-02-18T00:12:40;7.32;;;3.78;;
74894;SDS011;63447;49.446;8.666;2023-02-18T00:15:06;7.57;;;4.35;;
74894;SDS011;63447;49.446;8.666;2023-02-18T00:17:32;6.63;;;3.75;;
74894;SDS011;63447;49.446;8.666;2023-02-18T00:20:00;7.13;;;4.03;;
74894;SDS011;63447;49.446;8.666;2023-02-18T00:22:27;6.82;;;3.92;;
74894;SDS011;63447;49.446;8.666;2023-02-18T00:24:55;7.18;;;4.03;;
74894;SDS011;63447;49.446;8.666;2023-02-18T00:27:20;7.00;;;4.00;;
74894;SDS011;63447;49.446;8.666;2023-02-18T00:29:48;6.90;;;3.83;;
74894;SDS011;63447;49.446;8.666;2023-02-18T00:32:16;10.60;;;4.10;;
74894;SDS011;63447;49.446;8.666;2023-02-18T00:34:41;8.32;;;3.83;;
74894;SDS011;63447;49.446;8.666;2023-02-18T00:37:06;6.72;;;3.83;;
74894;SDS011;63447;49.446;8.666;2023-02-18T00:39:32;8.17;;;4.03;;
74894;SDS011;63447;49.446;8.666;2023-02-18T00:41:57;6.87;;;4.20;;
74894;SDS011;63447;49.446;8.666;2023-02-18T00:44:22;7.93;;;4.27;;
74894;SDS011;63447;49.446;8.666;2023-02-18T00:46:48;7.77;;;4.17;;
74894;SDS011;63447;49.446;8.666;2023-02-18T00:49:16;8.15;;;4.57;;
74894;SDS011;63447;49.446;8.666;2023-02-18T00:51:42;8.60;;;4.40;;
74894;SDS011;63447;49.446;8.666;2023-02-18T00:54:08;8.10;;;4.45;;
74894;SDS011;63447;49.446;8.666;2023-02-18T00:56:33;7.72;;;4.10;;
74894;SDS011;63447;49.446;8.666;2023-02-18T00:58:58;8.70;;;3.95;;
74894;SDS011;63447;49.446;8.666;2023-02-18T01:01:24;8.20;;;4.47;;
74894;SDS011;63447;49.446;8.666;2023-02-18T01:03:50;8.27;;;4.40;;
74894;SDS011;63447;49.446;8.666;2023-02-18T01:06:15;7.03;;;4.00;;
74894;SDS011;63447;49.446;8.666;2023-02-18T01:08:43;7.45;;;4.45;;
74894;SDS011;63447;49.446;8.666;2023-02-18T01:11:11;7.50;;;4.28;;
74894;SDS011;63447;49.446;8.666;2023-02-18T01:13:37;7.60;;;4.07;;
74894;SDS011;63447;49.446;8.666;2023-02-18T01:16:03;7.82;;;4.25;;
74894;SDS011;63447;49.446;8.666;2023-02-18T01:18:29;7.97;;;4.57;;
74894;SDS011;63447;49.446;8.666;2023-02-18T01:20:54;7.70;;;4.28;;
74894;SDS011;63447;49.446;8.666;2023-02-18T01:23:22;8.02;;;4.15;;
74894;SDS011;63447;49.446;8.666;2023-02-18T01:25:50;6.80;;;3.72;;
74894;SDS011;63447;49.446;8.666;2023-02-18T01:28:16;6.72;;;3.72;;
74894;SDS011;63447;49.446;8.666;2023-02-18T01:30:43;8.40;;;4.25;;
74894;SDS011;63447;49.446;8.666;2023-02-18T01:33:08;7.43;;;4.18;;
74894;SDS011;63447;49.446;8.666;2023-02-18T01:35:36;7.47;;;4.00;;
74894;SDS011;63447;49.446;8.666;2023-02-18T01:38:05;6.30;;;3.42;;
74894;SDS011;63447;49.446;8.666;2023-02-18T01:40:33;7.13;;;3.75;;
74894;SDS011;63447;49.446;8.666;2023-02-18T01:42:59;6.88;;;3.67;;
74894;SDS011;63447;49.446;8.666;2023-02-18T01:48:10;7.68;;;3.40;;
74894;SDS011;63447;49.446;8.666;2023-02-18T01:50:43;7.75;;;3.63;;
74894;SDS011;63447;49.446;8.666;2023-02-18T01:53:14;6.75;;;3.58;;
74894;SDS011;63447;49.446;8.666;2023-02-18T01:55:45;6.60;;;3.35;;
74894;SDS011;63447;49.446;8.666;2023-02-18T01:58:12;6.70;;;3.42;;
74894;SDS011;63447;49.446;8.666;2023-02-18T02:00:38;7.15;;;3.42;;
74894;SDS011;63447;49.446;8.666;2023-02-18T02:03:04;6.20;;;3.22;;
74894;SDS011;63447;49.446;8.666;2023-02-18T02:05:30;5.93;;;3.17;;
74894;SDS011;63447;49.446;8.666;2023-02-18T02:07:56;6.35;;;3.13;;
74894;SDS011;63447;49.446;8.666;2023-02-18T02:10:23;7.13;;;3.47;;
74894;SDS011;63447;49.446;8.666;2023-02-18T02:15:48;7.45;;;3.85;;
74894;SDS011;63447;49.446;8.666;2023-02-18T02:26:58;7.10;;;3.20;;
74894;SDS011;63447;49.446;8.666;2023-02-18T02:29:44;6.35;;;3.13;;
74894;SDS011;63447;49.446;8.666;2023-02-18T02:37:20;5.93;;;3.10;;
74894;SDS011;63447;49.446;8.666;2023-02-18T02:40:06;6.82;;;3.33;;
74894;SDS011;63447;49.446;8.666;2023-02-18T02:45:42;6.05;;;3.22;;
74894;SDS011;63447;49.446;8.666;2023-02-18T02:48:24;6.07;;;3.20;;
74894;SDS011;63447;49.446;8.666;2023-02-18T02:51:01;5.88;;;3.40;;
74894;SDS011;63447;49.446;8.666;2023-02-18T02:53:31;6.45;;;3.40;;
74894;SDS011;63447;49.446;8.666;2023-02-18T02:55:58;6.43;;;3.28;;
74894;SDS011;63447;49.446;8.666;2023-02-18T02:58:24;5.78;;;3.35;;
74894;SDS011;63447;49.446;8.666;2023-02-18T03:01:13;6.22;;;3.20;;
74894;SDS011;63447;49.446;8.666;2023-02-18T03:04:03;5.30;;;2.70;;
74894;SDS011;63447;49.446;8.666;2023-02-18T03:17:50;7.22;;;3.33;;
74894;SDS011;63447;49.446;8.666;2023-02-18T03:23:21;5.50;;;2.95;;
74894;SDS011;63447;49.446;8.666;2023-02-18T03:25:55;7.05;;;3.60;;
74894;SDS011;63447;49.446;8.666;2023-02-18T03:28:23;7.45;;;3.42;;
74894;SDS011;63447;49.446;8.666;2023-02-18T03:30:57;5.55;;;3.00;;
74894;SDS011;63447;49.446;8.666;2023-02-18T03:33:29;7.30;;;3.42;;
74894;SDS011;63447;49.446;8.666;2023-02-18T03:35:59;6.13;;;2.90;;
74894;SDS011;63447;49.446;8.666;2023-02-18T03:38:34;5.90;;;2.83;;
74894;SDS011;63447;49.446;8.666;2023-02-18T03:41:06;6.20;;;3.50;;
74894;SDS011;63447;49.446;8.666;2023-02-18T03:43:31;6.50;;;3.50;;
74894;SDS011;63447;49.446;8.666;2023-02-18T03:45:57;6.35;;;3.40;;
74894;SDS011;63447;49.446;8.666;2023-02-18T03:48:23;7.28;;;3.40;;
74894;SDS011;63447;49.446;8.666;2023-02-18T03:50:49;6.43;;;3.20;;
74894;SDS011;63447;49.446;8.666;2023-02-18T03:53:14;6.03;;;3.43;;
74894;SDS011;63447;49.446;8.666;2023-02-18T03:55:39;7.20;;;3.40;;
74894;SDS011;63447;49.446;8.666;2023-02-18T03:58:05;5.80;;;3.05;;
74894;SDS011;63447;49.446;8.666;2023-02-18T04:00:30;6.80;;;3.67;;
74894;SDS011;63447;49.446;8.666;2023-02-18T04:02:58;6.30;;;3.10;;
74894;SDS011;63447;49.446;8.666;2023-02-18T04:05:23;6.50;;;3.90;;
74894;SDS011;63447;49.446;8.666;2023-02-18T04:07:51;6.00;;;3.03;;
74894;SDS011;63447;49.446;8.666;2023-02-18T04:10:17;7.00;;;3.53;;
74894;SDS011;63447;49.446;8.666;2023-02-18T04:12:46;7.65;;;3.40;;
74894;SDS011;63447;49.446;8.666;2023-02-18T04:15:11;7.63;;;3.30;;
74894;SDS011;63447;49.446;8.666;2023-02-18T04:17:37;6.28;;;3.33;;
74894;SDS011;63447;49.446;8.666;2023-02-18T04:20:03;5.60;;;3.40;;
74894;SDS011;63447;49.446;8.666;2023-02-18T04:22:29;6.38;;;3.63;;
74894;SDS011;63447;49.446;8.666;2023-02-18T04:24:55;7.07;;;4.07;;
74894;SDS011;63447;49.446;8.666;2023-02-18T04:27:20;6.93;;;3.70;;
74894;SDS011;63447;49.446;8.666;2023-02-18T04:29:47;7.20;;;3.63;;
74894;SDS011;63447;49.446;8.666;2023-02-18T04:32:13;6.90;;;3.67;;
74894;SDS011;63447;49.446;8.666;2023-02-18T04:34:38;6.70;;;3.77;;
74894;SDS011;63447;49.446;8.666;2023-02-18T04:37:03;8.13;;;3.90;;
74894;SDS011;63447;49.446;8.666;2023-02-18T04:39:31;8.13;;;4.30;;
74894;SDS011;63447;49.446;8.666;2023-02-18T04:41:56;7.30;;;4.28;;
74894;SDS011;63447;49.446;8.666;2023-02-18T04:44:22;6.60;;;4.10;;
74894;SDS011;63447;49.446;8.666;2023-02-18T04:46:47;7.10;;;4.23;;
74894;SDS011;63447;49.446;8.666;2023-02-18T04:49:12;8.10;;;4.47;;
74894;SDS011;63447;49.446;8.666;2023-02-18T04:51:38;6.83;;;4.10;;
74894;SDS011;63447;49.446;8.666;2023-02-18T04:54:03;7.00;;;4.00;;
74894;SDS011;63447;49.446;8.666;2023-02-18T04:56:31;8.13;;;4.70;;
74894;SDS011;63447;49.446;8.666;2023-02-18T04:58:57;7.55;;;4.63;;
74894;SDS011;63447;49.446;8.666;2023-02-18T05:01:24;7.30;;;4.40;;
74894;SDS011;63447;49.446;8.666;2023-02-18T05:03:50;7.75;;;4.63;;
74894;SDS011;63447;49.446;8.666;2023-02-18T05:06:17;7.13;;;4.20;;
74894;SDS011;63447;49.446;8.666;2023-02-18T05:08:42;7.63;;;4.30;;
74894;SDS011;63447;49.446;8.666;2023-02-18T05:11:10;8.60;;;4.45;;
74894;SDS011;63447;49.446;8.666;2023-02-18T05:13:37;8.07;;;4.85;;
74894;SDS011;63447;49.446;8.666;2023-02-18T05:16:05;7.22;;;4.28;;
74894;SDS011;63447;49.446;8.666;2023-02-18T05:18:30;10.35;;;4.75;;
74894;SDS011;63447;49.446;8.666;2023-02-18T05:20:58;8.07;;;4.67;;
74894;SDS011;63447;49.446;8.666;2023-02-18T05:23:24;9.85;;;5.15;;
74894;SDS011;63447;49.446;8.666;2023-02-18T05:25:49;8.80;;;5.10;;
74894;SDS011;63447;49.446;8.666;2023-02-18T05:28:17;9.60;;;5.88;;
74894;SDS011;63447;49.446;8.666;2023-02-18T05:30:45;9.43;;;5.20;;
74894;SDS011;63447;49.446;8.666;2023-02-18T05:33:13;8.90;;;5.28;;
74894;SDS011;63447;49.446;8.666;2023-02-18T05:35:40;9.15;;;5.43;;
74894;SDS011;63447;49.446;8.666;2023-02-18T05:38:08;8.40;;;5.00;;
74894;SDS011;63447;49.446;8.666;2023-02-18T05:40:34;8.77;;;5.37;;
74894;SDS011;63447;49.446;8.666;2023-02-18T05:42:59;9.43;;;5.60;;
74894;SDS011;63447;49.446;8.666;2023-02-18T05:45:24;9.48;;;5.68;;
74894;SDS011;63447;49.446;8.666;2023-02-18T05:47:50;10.13;;;6.38;;
74894;SDS011;63447;49.446;8.666;2023-02-18T05:50:15;9.60;;;5.65;;
74894;SDS011;63447;49.446;8.666;2023-02-18T05:52:41;10.45;;;6.60;;
74894;SDS011;63447;49.446;8.666;2023-02-18T05:55:08;10.00;;;5.68;;
74894;SDS011;63447;49.446;8.666;2023-02-18T05:57:34;9.07;;;5.63;;
74894;SDS011;63447;49.446;8.666;2023-02-18T05:59:59;8.63;;;4.97;;
74894;SDS011;63447;49.446;8.666;2023-02-18T06:02:24;8.93;;;5.20;;
74894;SDS011;63447;49.446;8.666;2023-02-18T06:04:52;9.05;;;5.53;;
74894;SDS011;63447;49.446;8.666;2023-02-18T06:07:17;10.30;;;5.87;;
74894;SDS011;63447;49.446;8.666;2023-02-18T06:09:44;10.18;;;6.28;;
74894;SDS011;63447;49.446;8.666;2023-02-18T06:12:10;10.27;;;5.82;;
74894;SDS011;63447;49.446;8.666;2023-02-18T06:14:35;10.97;;;6.00;;
74894;SDS011;63447;49.446;8.666;2023-02-18T06:17:00;10.48;;;6.80;;
74894;SDS011;63447;49.446;8.666;2023-02-18T06:19:28;10.37;;;6.13;;
74894;SDS011;63447;49.446;8.666;2023-02-18T06:21:55;11.23;;;6.38;;
74894;SDS011;63447;49.446;8.666;2023-02-18T06:24:24;11.88;;;6.18;;
74894;SDS011;63447;49.446;8.666;2023-02-18T06:26:49;11.20;;;6.90;;
74894;SDS011;63447;49.446;8.666;2023-02-18T06:29:15;9.87;;;6.13;;
74894;SDS011;63447;49.446;8.666;2023-02-18T06:31:40;10.17;;;6.17;;
74894;SDS011;63447;49.446;8.666;2023-02-18T06:34:05;9.90;;;5.80;;
74894;SDS011;63447;49.446;8.666;2023-02-18T06:36:31;10.88;;;6.22;;
74894;SDS011;63447;49.446;8.666;2023-02-18T06:38:56;10.02;;;6.35;;
74894;SDS011;63447;49.446;8.666;2023-02-18T06:41:23;11.23;;;6.72;;
74894;SDS011;63447;49.446;8.666;2023-02-18T06:43:51;11.52;;;6.32;;
74894;SDS011;63447;49.446;8.666;2023-02-18T06:46:17;10.05;;;6.07;;
74894;SDS011;63447;49.446;8.666;2023-02-18T06:48:47;11.50;;;6.17;;
74894;SDS011;63447;49.446;8.666;2023-02-18T06:51:12;9.20;;;5.68;;
74894;SDS011;63447;49.446;8.666;2023-02-18T06:53:38;9.50;;;5.25;;
74894;SDS011;63447;49.446;8.666;2023-02-18T06:56:08;10.30;;;5.60;;
74894;SDS011;63447;49.446;8.666;2023-02-18T06:58:36;12.57;;;6.05;;
74894;SDS011;63447;49.446;8.666;2023-02-18T07:01:01;9.63;;;5.30;;
74894;SDS011;63447;49.446;8.666;2023-02-18T07:03:29;10.25;;;5.57;;
74894;SDS011;63447;49.446;8.666;2023-02-18T07:05:55;9.70;;;6.13;;
74894;SDS011;63447;49.446;8.666;2023-02-18T07:08:20;9.90;;;5.60;;
74894;SDS011;63447;49.446;8.666;2023-02-18T07:10:45;9.75;;;5.47;;
74894;SDS011;63447;49.446;8.666;2023-02-18T07:13:12;10.43;;;5.68;;
74894;SDS011;63447;49.446;8.666;2023-02-18T07:15:37;10.80;;;5.10;;
74894;SDS011;63447;49.446;8.666;2023-02-18T07:18:02;7.97;;;4.57;;
74894;SDS011;63447;49.446;8.666;2023-02-18T07:20:30;8.20;;;4.70;;
74894;SDS011;63447;49.446;8.666;2023-02-18T07:22:58;10.88;;;5.93;;
74894;SDS011;63447;49.446;8.666;2023-02-18T07:25:23;8.00;;;4.63;;
74894;SDS011;63447;49.446;8.666;2023-02-18T07:27:51;8.27;;;5.15;;
74894;SDS011;63447;49.446;8.666;2023-02-18T07:30:19;9.20;;;5.45;;
74894;SDS011;63447;49.446;8.666;2023-02-18T07:32:47;8.75;;;5.03;;
74894;SDS011;63447;49.446;8.666;2023-02-18T07:35:13;8.75;;;5.05;;
74894;SDS011;63447;49.446;8.666;2023-02-18T07:37:43;8.52;;;5.05;;
74894;SDS011;63447;49.446;8.666;2023-02-18T07:40:13;9.35;;;5.35;;
74894;SDS011;63447;49.446;8.666;2023-02-18T07:42:42;8.98;;;4.82;;
74894;SDS011;63447;49.446;8.666;2023-02-18T07:45:08;7.78;;;4.53;;
74894;SDS011;63447;49.446;8.666;2023-02-18T07:47:35;8.48;;;4.50;;
74894;SDS011;63447;49.446;8.666;2023-02-18T07:50:03;8.98;;;4.90;;
74894;SDS011;63447;49.446;8.666;2023-02-18T07:52:29;8.60;;;4.35;;
74894;SDS011;63447;49.446;8.666;2023-02-18T07:54:55;7.07;;;4.15;;
74894;SDS011;63447;49.446;8.666;2023-02-18T07:57:20;8.40;;;4.40;;
74894;SDS011;63447;49.446;8.666;2023-02-18T07:59:48;8.65;;;4.18;;
74894;SDS011;63447;49.446;8.666;2023-02-18T08:02:14;7.28;;;4.18;;
74894;SDS011;63447;49.446;8.666;2023-02-18T08:04:43;8.02;;;4.25;;
74894;SDS011;63447;49.446;8.666;2023-02-18T08:07:18;8.50;;;5.07;;
74894;SDS011;63447;49.446;8.666;2023-02-18T08:09:45;7.40;;;4.30;;
74894;SDS011;63447;49.446;8.666;2023-02-18T08:12:12;6.55;;;3.95;;
74894;SDS011;63447;49.446;8.666;2023-02-18T08:14:38;9.37;;;4.63;;
74894;SDS011;63447;49.446;8.666;2023-02-18T08:17:04;8.48;;;4.53;;
74894;SDS011;63447;49.446;8.666;2023-02-18T08:19:29;7.23;;;3.97;;
74894;SDS011;63447;49.446;8.666;2023-02-18T08:21:54;8.27;;;4.20;;
74894;SDS011;63447;49.446;8.666;2023-02-18T08:24:20;7.35;;;4.15;;
74894;SDS011;63447;49.446;8.666;2023-02-18T08:26:45;7.47;;;4.20;;
74894;SDS011;63447;49.446;8.666;2023-02-18T08:29:13;12.07;;;5.45;;
74894;SDS011;63447;49.446;8.666;2023-02-18T08:31:38;6.53;;;3.83;;
74894;SDS011;63447;49.446;8.666;2023-02-18T08:34:03;7.87;;;4.10;;
74894;SDS011;63447;49.446;8.666;2023-02-18T08:36:29;7.20;;;3.87;;
74894;SDS011;63447;49.446;8.666;2023-02-18T08:38:55;6.97;;;3.83;;
74894;SDS011;63447;49.446;8.666;2023-02-18T08:41:23;7.82;;;4.10;;
74894;SDS011;63447;49.446;8.666;2023-02-18T08:43:49;7.10;;;3.60;;
74894;SDS011;63447;49.446;8.666;2023-02-18T08:46:17;7.05;;;3.70;;
74894;SDS011;63447;49.446;8.666;2023-02-18T08:48:42;7.45;;;3.95;;
74894;SDS011;63447;49.446;8.666;2023-02-18T08:51:17;9.82;;;4.15;;
74894;SDS011;63447;49.446;8.666;2023-02-18T08:53:43;8.38;;;3.45;;
74894;SDS011;63447;49.446;8.666;2023-02-18T08:56:11;7.18;;;3.90;;
74894;SDS011;63447;49.446;8.666;2023-02-18T08:58:39;6.28;;;3.50;;
74894;SDS011;63447;49.446;8.666;2023-02-18T09:01:08;8.18;;;3.72;;
74894;SDS011;63447;49.446;8.666;2023-02-18T09:03:37;7.00;;;3.83;;
74894;SDS011;63447;49.446;8.666;2023-02-18T09:06:03;7.28;;;3.70;;
74894;SDS011;63447;49.446;8.666;2023-02-18T09:08:29;7.40;;;3.83;;
74894;SDS011;63447;49.446;8.666;2023-02-18T09:10:59;6.30;;;3.63;;
74894;SDS011;63447;49.446;8.666;2023-02-18T09:13:25;7.60;;;4.22;;
74894;SDS011;63447;49.446;8.666;2023-02-18T09:16:05;8.15;;;3.80;;
74894;SDS011;63447;49.446;8.666;2023-02-18T09:18:35;7.18;;;4.03;;
74894;SDS011;63447;49.446;8.666;2023-02-18T09:21:00;7.45;;;3.53;;
74894;SDS011;63447;49.446;8.666;2023-02-18T09:23:28;7.43;;;3.72;;
74894;SDS011;63447;49.446;8.666;2023-02-18T09:25:55;6.80;;;3.63;;
74894;SDS011;63447;49.446;8.666;2023-02-18T09:28:21;7.82;;;3.78;;
74894;SDS011;63447;49.446;8.666;2023-02-18T09:30:46;6.82;;;3.67;;
74894;SDS011;63447;49.446;8.666;2023-02-18T09:33:12;8.38;;;3.85;;
74894;SDS011;63447;49.446;8.666;2023-02-18T09:35:40;6.53;;;3.38;;
74894;SDS011;63447;49.446;8.666;2023-02-18T09:38:08;6.50;;;3.53;;
74894;SDS011;63447;49.446;8.666;2023-02-18T09:40:35;7.55;;;4.00;;
74894;SDS011;63447;49.446;8.666;2023-02-18T09:43:03;6.38;;;3.67;;
74894;SDS011;63447;49.446;8.666;2023-02-18T09:45:29;7.45;;;3.92;;
74894;SDS011;63447;49.446;8.666;2023-02-18T09:47:57;7.20;;;3.78;;
74894;SDS011;63447;49.446;8.666;2023-02-18T09:50:28;6.90;;;3.90;;
74894;SDS011;63447;49.446;8.666;2023-02-18T09:52:59;7.35;;;3.60;;
74894;SDS011;63447;49.446;8.666;2023-02-18T09:55:32;6.97;;;3.58;;
74894;SDS011;63447;49.446;8.666;2023-02-18T09:58:03;6.80;;;3.90;;
74894;SDS011;63447;49.446;8.666;2023-02-18T10:00:44;7.15;;;4.15;;
74894;SDS011;63447;49.446;8.666;2023-02-18T10:08:26;6.75;;;3.45;;
74894;SDS011;63447;49.446;8.666;2023-02-18T10:10:55;6.72;;;3.35;;
74894;SDS011;63447;49.446;8.666;2023-02-18T10:13:22;5.75;;;3.45;;
74894;SDS011;63447;49.446;8.666;2023-02-18T10:15:51;6.05;;;3.45;;
74894;SDS011;63447;49.446;8.666;2023-02-18T10:21:07;6.05;;;3.50;;
74894;SDS011;63447;49.446;8.666;2023-02-18T10:23:37;6.47;;;3.63;;
74894;SDS011;63447;49.446;8.666;2023-02-18T10:26:15;7.35;;;3.70;;
74894;SDS011;63447;49.446;8.666;2023-02-18T10:28:42;6.50;;;3.38;;
74894;SDS011;63447;49.446;8.666;2023-02-18T10:31:08;7.00;;;3.80;;
74894;SDS011;63447;49.446;8.666;2023-02-18T10:33:55;7.90;;;4.00;;
74894;SDS011;63447;49.446;8.666;2023-02-18T10:42:21;8.32;;;3.97;;
74894;SDS011;63447;49.446;8.666;2023-02-18T10:47:45;7.82;;;3.67;;
74894;SDS011;63447;49.446;8.666;2023-02-18T10:52:54;8.73;;;4.28;;
74894;SDS011;63447;49.446;8.666;2023-02-18T10:55:37;6.60;;;4.00;;
74894;SDS011;63447;49.446;8.666;2023-02-18T10:58:22;9.18;;;4.30;;
74894;SDS011;63447;49.446;8.666;2023-02-18T11:00:50;7.88;;;4.38;;
74894;SDS011;63447;49.446;8.666;2023-02-18T11:03:18;9.60;;;4.93;;
74894;SDS011;63447;49.446;8.666;2023-02-18T11:05:47;8.63;;;4.40;;
74894;SDS011;63447;49.446;8.666;2023-02-18T11:08:23;7.85;;;5.05;;
74894;SDS011;63447;49.446;8.666;2023-02-18T11:10:51;9.30;;;4.85;;
74894;SDS011;63447;49.446;8.666;2023-02-18T11:13:29;10.57;;;5.25;;
74894;SDS011;63447;49.446;8.666;2023-02-18T11:16:04;8.65;;;5.38;;
74894;SDS011;63447;49.446;8.666;2023-02-18T11:18:37;9.93;;;5.53;;
74894;SDS011;63447;49.446;8.666;2023-02-18T11:24:23;11.05;;;6.18;;
74894;SDS011;63447;49.446;8.666;2023-02-18T11:26:48;10.98;;;6.72;;
74894;SDS011;63447;49.446;8.666;2023-02-18T11:29:16;10.60;;;6.43;;
74894;SDS011;63447;49.446;8.666;2023-02-18T11:31:46;10.85;;;6.50;;
74894;SDS011;63447;49.446;8.666;2023-02-18T11:34:18;10.80;;;6.50;;
74894;SDS011;63447;49.446;8.666;2023-02-18T11:36:46;9.73;;;5.85;;
74894;SDS011;63447;49.446;8.666;2023-02-18T11:41:55;10.70;;;6.38;;
74894;SDS011;63447;49.446;8.666;2023-02-18T11:44:33;10.15;;;6.03;;
74894;SDS011;63447;49.446;8.666;2023-02-18T11:49:28;10.77;;;6.68;;
74894;SDS011;63447;49.446;8.666;2023-02-18T11:54:57;11.63;;;6.50;;
74894;SDS011;63447;49.446;8.666;2023-02-18T11:57:25;10.10;;;6.68;;
74894;SDS011;63447;49.446;8.666;2023-02-18T11:59:52;10.80;;;5.78;;
74894;SDS011;63447;49.446;8.666;2023-02-18T12:02:29;11.38;;;6.70;;
74894;SDS011;63447;49.446;8.666;2023-02-18T12:07:49;9.98;;;6.40;;
74894;SDS011;63447;49.446;8.666;2023-02-18T12:10:24;8.90;;;6.05;;
74894;SDS011;63447;49.446;8.666;2023-02-18T12:18:26;10.45;;;5.85;;
74894;SDS011;63447;49.446;8.666;2023-02-18T12:29:23;9.55;;;5.95;;
74894;SDS011;63447;49.446;8.666;2023-02-18T12:37:43;8.27;;;5.03;;
74894;SDS011;63447;49.446;8.666;2023-02-18T12:40:28;8.60;;;4.80;;
74894;SDS011;63447;49.446;8.666;2023-02-18T12:52:25;7.85;;;4.57;;
74894;SDS011;63447;49.446;8.666;2023-02-18T13:08:34;9.10;;;4.40;;
74894;SDS011;63447;49.446;8.666;2023-02-18T13:14:01;10.52;;;5.93;;
74894;SDS011;63447;49.446;8.666;2023-02-18T13:16:32;7.75;;;4.43;;
74894;SDS011;63447;49.446;8.666;2023-02-18T13:21:39;8.20;;;4.68;;
74894;SDS011;63447;49.446;8.666;2023-02-18T13:24:12;7.07;;;4.28;;
74894;SDS011;63447;49.446;8.666;2023-02-18T13:26:51;7.63;;;4.25;;
74894;SDS011;63447;49.446;8.666;2023-02-18T13:29:30;6.88;;;4.20;;
74894;SDS011;63447;49.446;8.666;2023-02-18T13:34:57;8.73;;;4.60;;
74894;SDS011;63447;49.446;8.666;2023-02-18T13:37:45;7.28;;;4.03;;
74894;SDS011;63447;49.446;8.666;2023-02-18T13:40:21;8.75;;;4.25;;
74894;SDS011;63447;49.446;8.666;2023-02-18T13:42:54;7.32;;;3.92;;
74894;SDS011;63447;49.446;8.666;2023-02-18T13:45:43;12.55;;;6.25;;
74894;SDS011;63447;49.446;8.666;2023-02-18T13:48:39;8.32;;;4.20;;
74894;SDS011;63447;49.446;8.666;2023-02-18T13:51:07;16.75;;;7.65;;
74894;SDS011;63447;49.446;8.666;2023-02-18T13:53:35;9.52;;;4.45;;
74894;SDS011;63447;49.446;8.666;2023-02-18T13:56:03;8.77;;;4.38;;
74894;SDS011;63447;49.446;8.666;2023-02-18T13:58:39;9.95;;;5.38;;
74894;SDS011;63447;49.446;8.666;2023-02-18T14:06:26;11.23;;;5.60;;
74894;SDS011;63447;49.446;8.666;2023-02-18T14:09:02;13.93;;;6.32;;
74894;SDS011;63447;49.446;8.666;2023-02-18T14:20:26;6.75;;;3.55;;
74894;SDS011;63447;49.446;8.666;2023-02-18T14:22:44;12.32;;;4.38;;
74894;SDS011;63447;49.446;8.666;2023-02-18T14:25:20;7.35;;;4.07;;
74894;SDS011;63447;49.446;8.666;2023-02-18T14:27:49;7.20;;;3.92;;
74894;SDS011;63447;49.446;8.666;2023-02-18T14:30:23;9.75;;;5.05;;
74894;SDS011;63447;49.446;8.666;2023-02-18T14:32:56;8.32;;;4.35;;
74894;SDS011;63447;49.446;8.666;2023-02-18T14:46:07;8.20;;;4.05;;
74894;SDS011;63447;49.446;8.666;2023-02-18T14:48:41;7.55;;;3.88;;
74894;SDS011;63447;49.446;8.666;2023-02-18T14:51:25;6.05;;;3.33;;
74894;SDS011;63447;49.446;8.666;2023-02-18T14:53:55;7.45;;;3.78;;
74894;SDS011;63447;49.446;8.666;2023-02-18T14:56:20;7.30;;;3.92;;
74894;SDS011;63447;49.446;8.666;2023-02-18T14:58:47;7.15;;;3.95;;
74894;SDS011;63447;49.446;8.666;2023-02-18T15:01:19;6.88;;;3.85;;
74894;SDS011;63447;49.446;8.666;2023-02-18T15:03:48;6.70;;;3.85;;
74894;SDS011;63447;49.446;8.666;2023-02-18T15:08:48;7.90;;;4.18;;
74894;SDS011;63447;49.446;8.666;2023-02-18T15:11:15;7.47;;;3.90;;
74894;SDS011;63447;49.446;8.666;2023-02-18T15:13:45;6.82;;;3.75;;
74894;SDS011;63447;49.446;8.666;2023-02-18T15:16:29;6.70;;;3.67;;
74894;SDS011;63447;49.446;8.666;2023-02-18T15:18:58;6.75;;;3.85;;
74894;SDS011;63447;49.446;8.666;2023-02-18T15:21:34;7.30;;;4.13;;
74894;SDS011;63447;49.446;8.666;2023-02-18T15:26:50;7.30;;;3.92;;
74894;SDS011;63447;49.446;8.666;2023-02-18T15:29:18;6.72;;;3.88;;
74894;SDS011;63447;49.446;8.666;2023-02-18T15:31:46;7.88;;;4.70;;
74894;SDS011;63447;49.446;8.666;2023-02-18T15:36:56;7.55;;;4.13;;
74894;SDS011;63447;49.446;8.666;2023-02-18T15:39:30;9.07;;;5.03;;
74894;SDS011;63447;49.446;8.666;2023-02-18T15:42:04;7.75;;;4.63;;
74894;SDS011;63447;49.446;8.666;2023-02-18T15:44:43;7.43;;;4.43;;
74894;SDS011;63447;49.446;8.666;2023-02-18T15:47:12;10.13;;;4.30;;
74894;SDS011;63447;49.446;8.666;2023-02-18T15:49:43;6.95;;;3.85;;
74894;SDS011;63447;49.446;8.666;2023-02-18T15:52:11;6.70;;;4.10;;
74894;SDS011;63447;49.446;8.666;2023-02-18T15:54:38;8.05;;;4.00;;
74894;SDS011;63447;49.446;8.666;2023-02-18T15:57:05;8.13;;;4.13;;
74894;SDS011;63447;49.446;8.666;2023-02-18T15:59:42;7.88;;;4.28;;
74894;SDS011;63447;49.446;8.666;2023-02-18T16:02:20;7.30;;;3.83;;
74894;SDS011;63447;49.446;8.666;2023-02-18T16:04:51;7.10;;;4.10;;
74894;SDS011;63447;49.446;8.666;2023-02-18T16:07:24;7.22;;;4.10;;
74894;SDS011;63447;49.446;8.666;2023-02-18T16:10:20;7.68;;;4.32;;
74894;SDS011;63447;49.446;8.666;2023-02-18T16:12:51;6.78;;;3.83;;
74894;SDS011;63447;49.446;8.666;2023-02-18T16:15:22;8.20;;;5.00;;
74894;SDS011;63447;49.446;8.666;2023-02-18T16:17:52;9.32;;;5.13;;
74894;SDS011;63447;49.446;8.666;2023-02-18T16:20:37;7.90;;;4.72;;
74894;SDS011;63447;49.446;8.666;2023-02-18T16:23:12;8.60;;;5.05;;
74894;SDS011;63447;49.446;8.666;2023-02-18T16:30:40;10.98;;;5.68;;
74894;SDS011;63447;49.446;8.666;2023-02-18T16:33:06;9.38;;;5.30;;
74894;SDS011;63447;49.446;8.666;2023-02-18T16:35:32;7.95;;;4.43;;
74894;SDS011;63447;49.446;8.666;2023-02-18T16:37:58;7.95;;;4.95;;
74894;SDS011;63447;49.446;8.666;2023-02-18T16:40:29;7.65;;;4.07;;
74894;SDS011;63447;49.446;8.666;2023-02-18T16:42:56;8.15;;;4.30;;
74894;SDS011;63447;49.446;8.666;2023-02-18T16:45:35;7.93;;;4.47;;
74894;SDS011;63447;49.446;8.666;2023-02-18T16:48:03;8.10;;;4.68;;
74894;SDS011;63447;49.446;8.666;2023-02-18T16:50:32;9.20;;;4.53;;
74894;SDS011;63447;49.446;8.666;2023-02-18T16:52:58;9.27;;;4.20;;
74894;SDS011;63447;49.446;8.666;2023-02-18T16:55:27;7.57;;;4.10;;
74894;SDS011;63447;49.446;8.666;2023-02-18T16:57:54;9.13;;;4.78;;
74894;SDS011;63447;49.446;8.666;2023-02-18T17:00:20;7.93;;;4.38;;
74894;SDS011;63447;49.446;8.666;2023-02-18T17:02:52;8.23;;;4.57;;
74894;SDS011;63447;49.446;8.666;2023-02-18T17:05:23;8.05;;;4.85;;
74894;SDS011;63447;49.446;8.666;2023-02-18T17:07:50;8.00;;;4.88;;
74894;SDS011;63447;49.446;8.666;2023-02-18T17:10:18;8.13;;;4.93;;
74894;SDS011;63447;49.446;8.666;2023-02-18T17:12:46;8.23;;;4.60;;
74894;SDS011;63447;49.446;8.666;2023-02-18T17:15:12;7.55;;;4.45;;
74894;SDS011;63447;49.446;8.666;2023-02-18T17:17:48;10.85;;;5.25;;
74894;SDS011;63447;49.446;8.666;2023-02-18T17:20:14;8.63;;;4.97;;
74894;SDS011;63447;49.446;8.666;2023-02-18T17:22:40;8.93;;;4.77;;
74894;SDS011;63447;49.446;8.666;2023-02-18T17:25:13;12.13;;;6.38;;
74894;SDS011;63447;49.446;8.666;2023-02-18T17:27:44;8.40;;;4.85;;
74894;SDS011;63447;49.446;8.666;2023-02-18T17:30:09;9.70;;;4.95;;
74894;SDS011;63447;49.446;8.666;2023-02-18T17:32:35;8.63;;;4.78;;
74894;SDS011;63447;49.446;8.666;2023-02-18T17:35:03;10.07;;;5.50;;